createdAt,value
2023-02-24T00:03:17.300Z,20.43
2023-02-24T00:08:19.058Z,21.30
2023-02-24T00:13:22.338Z,23.50
2023-02-24T00:18:25.394Z,18.00
2023-02-24T00:23:27.081Z,35.83
2023-02-24T00:28:29.047Z,21.40
2023-02-24T00:33:32.412Z,19.30
2023-02-24T00:38:35.829Z,25.60
2023-02-24T00:43:38.928Z,24.30
2023-02-24T00:48:42.124Z,28.93
2023-02-24T00:53:44.151Z,30.77
2023-02-24T00:58:45.878Z,29.57
2023-02-24T01:03:49.381Z,27.23
2023-02-24T01:08:52.593Z,32.80
2023-02-24T01:13:54.376Z,27.73
2023-02-24T01:18:57.423Z,20.87
2023-02-24T01:23:59.094Z,28.97
2023-02-24T01:29:00.831Z,17.50
2023-02-24T01:34:06.030Z,25.83
2023-02-24T01:39:10.870Z,21.93
2023-02-24T01:44:45.891Z,25.53
2023-02-24T01:49:49.921Z,25.97
2023-02-24T01:54:55.483Z,27.90
2023-02-24T02:00:02.260Z,19.47
2023-02-24T02:05:06.391Z,30.85
2023-02-24T02:10:09.036Z,20.80
2023-02-24T02:15:13.005Z,20.97
2023-02-24T02:20:30.199Z,15.90
2023-02-24T02:25:38.913Z,24.77
2023-02-24T02:30:59.914Z,14.50
2023-02-24T02:36:07.060Z,13.93
2023-02-24T02:41:11.425Z,18.60
2023-02-24T02:46:17.567Z,17.17
2023-02-24T02:51:22.546Z,20.33
2023-02-24T02:56:25.622Z,25.83
2023-02-24T03:01:32.104Z,18.50
2023-02-24T03:06:37.194Z,12.20
2023-02-24T03:11:39.100Z,20.97
2023-02-24T03:16:41.613Z,17.87
2023-02-24T03:21:45.757Z,8.53
2023-02-24T03:26:50.373Z,15.60
2023-02-24T03:31:55.490Z,10.80
2023-02-24T03:36:59.086Z,8.80
2023-02-24T03:42:02.923Z,12.70
2023-02-24T03:47:09.541Z,10.07
2023-02-24T03:52:21.465Z,7.93
2023-02-24T03:57:27.093Z,11.87
2023-02-24T04:02:31.180Z,10.80
2023-02-24T04:07:40.377Z,13.00
2023-02-24T04:12:47.004Z,10.90
2023-02-24T04:17:50.833Z,8.70
2023-02-24T04:22:57.954Z,11.67
2023-02-24T04:28:00.687Z,10.20
2023-02-24T04:33:02.570Z,11.70
2023-02-24T04:38:05.697Z,13.80
2023-02-24T04:43:08.274Z,12.80
2023-02-24T04:48:13.006Z,9.00
2023-02-24T04:53:16.633Z,12.80
2023-02-24T04:58:19.268Z,13.98
2023-02-24T05:03:22.276Z,11.00
2023-02-24T05:08:25.521Z,12.40
2023-02-24T05:13:28.132Z,6.50
2023-02-24T05:18:36.997Z,8.57
2023-02-24T05:23:44.127Z,11.70
2023-02-24T05:28:49.054Z,7.37
2023-02-24T05:33:54.585Z,10.97
2023-02-24T05:39:07.798Z,25.83
2023-02-24T05:44:11.336Z,7.47
2023-02-24T05:49:14.317Z,8.33
2023-02-24T05:54:17.482Z,9.60
2023-02-24T05:59:21.427Z,10.13
2023-02-24T06:04:45.816Z,15.33
2023-02-24T06:09:50.352Z,5.90
2023-02-24T06:14:52.974Z,14.70
2023-02-24T06:19:54.698Z,12.73
2023-02-24T06:24:57.702Z,14.20
2023-02-24T06:29:59.338Z,10.37
2023-02-24T06:35:01.853Z,10.10
2023-02-24T06:40:15.620Z,7.60
2023-02-24T06:45:17.454Z,10.33
2023-02-24T06:50:23.286Z,6.70
2023-02-24T06:55:26.429Z,11.17
2023-02-24T07:00:42.578Z,12.00
2023-02-24T07:05:50.154Z,10.37
2023-02-24T07:10:53.940Z,10.10
2023-02-24T07:15:55.733Z,8.57
2023-02-24T07:21:05.021Z,10.57
2023-02-24T07:26:11.908Z,7.73
2023-02-24T07:31:15.174Z,8.80
2023-02-24T07:36:23.019Z,12.20
2023-02-24T07:41:26.400Z,9.17
2023-02-24T07:46:28.289Z,3.42
2023-02-24T07:51:30.062Z,4.10
2023-02-24T07:56:33.055Z,10.97
2023-02-24T08:01:39.110Z,8.20
2023-02-24T08:06:46.225Z,4.60
2023-02-24T08:11:54.358Z,10.10
2023-02-24T08:17:02.121Z,7.13
2023-02-24T08:22:19.230Z,4.70
2023-02-24T08:27:24.013Z,4.10
2023-02-24T08:32:26.832Z,9.80
2023-02-24T08:37:33.413Z,11.93
2023-02-24T08:42:36.494Z,6.70
2023-02-24T08:47:38.156Z,7.67
2023-02-24T08:52:40.404Z,6.70
2023-02-24T08:57:53.492Z,10.47
2023-02-24T09:02:56.143Z,12.93
2023-02-24T09:07:57.784Z,8.80
2023-02-24T09:13:01.161Z,10.03
2023-02-24T09:18:07.472Z,9.73
2023-02-24T09:23:19.887Z,10.38
2023-02-24T09:28:24.877Z,6.10
2023-02-24T09:33:27.889Z,13.07
2023-02-24T09:38:48.344Z,7.32
2023-02-24T09:43:59.834Z,15.33
2023-02-24T09:49:05.295Z,9.10
2023-02-24T09:54:13.486Z,14.43
2023-02-24T09:59:26.055Z,9.27
2023-02-24T10:04:53.855Z,12.87
2023-02-24T10:10:11.092Z,10.90
2023-02-24T10:15:20.586Z,13.27
2023-02-24T10:20:30.975Z,9.70
2023-02-24T10:25:41.667Z,6.40
2023-02-24T10:30:48.622Z,6.93
2023-02-24T10:35:50.414Z,6.60
2023-02-24T10:40:56.676Z,10.67
2023-02-24T10:46:16.921Z,7.57
2023-02-24T10:51:21.501Z,4.17
2023-02-24T10:56:26.774Z,8.03
2023-02-24T11:01:49.430Z,7.03
2023-02-24T11:06:55.600Z,11.07
2023-02-24T11:12:17.607Z,13.77
2023-02-24T11:17:26.720Z,8.43
2023-02-24T11:22:32.554Z,6.35
2023-02-24T11:27:34.235Z,5.90
2023-02-24T11:32:45.464Z,6.80
2023-02-24T11:37:53.070Z,11.27
2023-02-24T11:42:56.914Z,8.23
2023-02-24T11:48:02.988Z,6.00
2023-02-24T11:53:10.001Z,12.10
2023-02-24T11:58:14.627Z,6.30
2023-02-24T12:03:22.822Z,6.97
2023-02-24T12:08:26.882Z,5.27
2023-02-24T12:13:32.274Z,10.10
2023-02-24T12:18:36.578Z,4.90
2023-02-24T12:23:39.633Z,8.20
2023-02-24T12:28:56.830Z,8.63
2023-02-24T12:34:08.516Z,4.67
2023-02-24T12:39:12.764Z,7.85
2023-02-24T12:44:22.756Z,6.30
2023-02-24T12:49:36.192Z,10.93
2023-02-24T12:54:40.260Z,9.67
2023-02-24T12:59:42.030Z,5.27
2023-02-24T13:04:48.899Z,4.10
2023-02-24T13:09:52.270Z,5.17
2023-02-24T13:14:54.018Z,3.43
2023-02-24T13:19:57.019Z,4.93
2023-02-24T13:25:12.195Z,2.60
2023-02-24T13:30:36.923Z,3.13
2023-02-24T13:35:40.067Z,8.07
2023-02-24T13:40:41.763Z,3.47
2023-02-24T13:45:45.116Z,5.90
2023-02-24T13:51:17.462Z,3.83
2023-02-24T13:56:28.367Z,3.85
2023-02-24T14:01:30.059Z,4.37
2023-02-24T14:06:33.078Z,4.47
2023-02-24T14:11:35.903Z,6.20
2023-02-24T14:16:39.672Z,6.43
2023-02-24T14:21:48.896Z,9.33
2023-02-24T14:26:51.600Z,8.33
2023-02-24T14:31:54.419Z,7.57
2023-02-24T14:36:58.216Z,7.00
2023-02-24T14:42:12.812Z,6.77
2023-02-24T14:47:15.052Z,5.95
2023-02-24T14:52:20.221Z,18.30
2023-02-24T14:57:22.731Z,13.30
2023-02-24T15:02:25.818Z,6.60
2023-02-24T15:07:30.162Z,10.63
2023-02-24T15:12:33.008Z,8.23
2023-02-24T15:17:38.401Z,10.50
2023-02-24T15:22:48.062Z,9.80
2023-02-24T15:27:50.689Z,8.53
2023-02-24T15:32:59.785Z,8.60
2023-02-24T15:38:03.107Z,16.70
2023-02-24T15:43:08.726Z,12.82
2023-02-24T15:48:19.632Z,23.30
2023-02-24T15:53:22.629Z,11.47
2023-02-24T15:58:25.410Z,10.30
2023-02-24T16:03:27.077Z,17.50
2023-02-24T16:08:30.067Z,13.03
2023-02-24T16:13:31.781Z,12.37
2023-02-24T16:18:33.509Z,20.73
2023-02-24T16:23:40.637Z,13.50
2023-02-24T16:28:42.592Z,13.23
2023-02-24T16:33:54.088Z,11.57
2023-02-24T16:38:57.826Z,16.27
2023-02-24T16:43:59.733Z,13.23
2023-02-24T16:49:01.430Z,15.07
2023-02-24T16:54:04.653Z,14.77
2023-02-24T16:59:06.310Z,23.40
2023-02-24T17:04:09.929Z,13.75
2023-02-24T17:09:15.529Z,15.63
2023-02-24T17:14:18.268Z,17.47
2023-02-24T17:19:20.311Z,22.57
2023-02-24T17:24:24.890Z,15.97
2023-02-24T17:29:26.713Z,21.70
2023-02-24T17:34:28.522Z,18.30
2023-02-24T17:39:31.621Z,21.07
2023-02-24T17:44:33.586Z,20.93
2023-02-24T17:49:35.355Z,17.67
2023-02-24T17:54:39.005Z,22.20
2023-02-24T17:59:42.315Z,14.63
2023-02-24T18:04:44.026Z,15.13
2023-02-24T18:09:47.046Z,18.27
2023-02-24T18:14:59.052Z,32.43
2023-02-24T18:20:08.702Z,18.00
2023-02-24T18:25:11.813Z,12.77
2023-02-24T18:30:17.666Z,12.93
2023-02-24T18:35:21.829Z,11.00
2023-02-24T18:40:24.939Z,16.93
2023-02-24T18:45:26.678Z,12.70
2023-02-24T18:50:28.453Z,10.83
2023-02-24T18:55:34.265Z,18.57
2023-02-24T19:00:35.942Z,7.93
2023-02-24T19:05:39.005Z,7.07
2023-02-24T19:10:43.609Z,13.13
2023-02-24T19:15:45.355Z,7.53
2023-02-24T19:20:47.133Z,12.57
2023-02-24T19:25:50.224Z,11.07
2023-02-24T19:30:54.016Z,11.37
2023-02-24T19:35:57.983Z,15.13
2023-02-24T19:41:01.117Z,10.67
2023-02-24T19:46:06.204Z,11.20
2023-02-24T19:51:08.904Z,16.30
2023-02-24T19:56:12.008Z,10.83
2023-02-24T20:01:13.838Z,11.37
2023-02-24T20:06:18.913Z,16.03
2023-02-24T20:11:22.456Z,15.20
2023-02-24T20:16:25.742Z,35.22
2023-02-24T20:21:27.984Z,19.93
2023-02-24T20:26:31.126Z,20.53
2023-02-24T20:31:32.851Z,31.83
2023-02-24T20:36:34.753Z,19.50
2023-02-24T20:41:38.014Z,25.17
2023-02-24T20:46:39.709Z,27.60
2023-02-24T20:51:41.608Z,34.72
2023-02-24T20:56:44.874Z,22.40
2023-02-24T21:01:47.792Z,23.53
2023-02-24T21:06:51.796Z,16.83
2023-02-24T21:11:54.873Z,28.55
2023-02-24T21:16:56.562Z,24.70
2023-02-24T21:21:58.208Z,16.48
2023-02-24T21:27:01.262Z,21.33
2023-02-24T21:32:03.302Z,22.37
2023-02-24T21:37:05.900Z,18.53
2023-02-24T21:42:09.896Z,17.93
2023-02-24T21:47:11.712Z,24.20
2023-02-24T21:52:13.482Z,28.63
2023-02-24T21:57:17.135Z,17.40
2023-02-24T22:02:18.845Z,24.77
2023-02-24T22:07:20.450Z,34.17
2023-02-24T22:12:23.442Z,26.47
2023-02-24T22:17:25.162Z,26.83
2023-02-24T22:22:26.890Z,33.57
2023-02-24T22:27:30.046Z,24.80
2023-02-24T22:32:32.292Z,29.87
2023-02-24T22:37:33.996Z,29.60
2023-02-24T22:42:37.055Z,26.63
2023-02-24T22:47:38.730Z,28.57
2023-02-24T22:52:40.681Z,31.70
2023-02-24T22:57:43.764Z,24.37
2023-02-24T23:02:45.621Z,38.03
2023-02-24T23:07:48.479Z,31.87
2023-02-24T23:12:53.040Z,20.73
2023-02-24T23:17:55.172Z,27.60
2023-02-24T23:22:56.947Z,28.60
2023-02-24T23:28:00.086Z,22.10
2023-02-24T23:33:03.019Z,21.60
2023-02-24T23:38:04.748Z,32.70
2023-02-24T23:43:08.095Z,23.05
2023-02-24T23:48:10.432Z,31.10
2023-02-24T23:53:12.127Z,21.83
2023-02-24T23:58:16.460Z,23.13
